createdAt,value
2022-12-14T00:01:37.268Z,-7.14
2022-12-14T00:04:04.398Z,-7.06
2022-12-14T00:06:32.701Z,-7.12
2022-12-14T00:09:01.972Z,-7.09
2022-12-14T00:11:30.004Z,-7.06
2022-12-14T00:13:59.370Z,-7.08
2022-12-14T00:16:28.638Z,-7.06
2022-12-14T00:18:57.025Z,-7.03
2022-12-14T00:21:23.949Z,-7.10
2022-12-14T00:23:52.132Z,-7.02
2022-12-14T00:26:31.273Z,-7.09
2022-12-14T00:28:59.440Z,-7.13
2022-12-14T00:31:26.337Z,-7.03
2022-12-14T00:33:53.127Z,-7.04
2022-12-14T00:36:20.571Z,-7.18
2022-12-14T00:38:47.417Z,-7.17
2022-12-14T00:41:14.083Z,-7.15
2022-12-14T00:43:40.986Z,-7.10
2022-12-14T00:46:08.147Z,-7.16
2022-12-14T00:48:35.408Z,-7.12
2022-12-14T00:51:02.422Z,-7.21
2022-12-14T00:53:29.211Z,-7.15
2022-12-14T00:55:55.936Z,-7.20
2022-12-14T00:58:27.003Z,-7.18
2022-12-14T01:01:05.601Z,-7.14
2022-12-14T01:03:33.376Z,-7.19
2022-12-14T01:06:00.722Z,-7.18
2022-12-14T01:08:35.527Z,-7.20
2022-12-14T01:11:07.245Z,-7.15
2022-12-14T01:13:34.556Z,-7.13
2022-12-14T01:16:06.637Z,-7.08
2022-12-14T01:18:38.262Z,-7.07
2022-12-14T01:21:22.810Z,-7.10
2022-12-14T01:24:02.294Z,-7.20
2022-12-14T01:26:30.449Z,-7.14
2022-12-14T01:28:59.139Z,-7.25
2022-12-14T01:31:32.083Z,-7.22
2022-12-14T01:33:59.152Z,-7.30
2022-12-14T01:36:28.777Z,-7.36
2022-12-14T01:39:04.103Z,-7.28
2022-12-14T01:41:39.771Z,-7.35
2022-12-14T01:44:09.288Z,-7.25
2022-12-14T01:46:44.512Z,-7.29
2022-12-14T01:49:16.465Z,-7.30
2022-12-14T01:51:50.052Z,-7.22
2022-12-14T01:54:16.877Z,-7.27
2022-12-14T01:56:45.858Z,-7.27
2022-12-14T01:59:21.957Z,-7.23
2022-12-14T02:01:49.237Z,-7.25
2022-12-14T02:04:18.205Z,-7.20
2022-12-14T02:06:49.049Z,-7.21
2022-12-14T02:09:20.535Z,-7.16
2022-12-14T02:11:55.090Z,-7.14
2022-12-14T02:14:22.275Z,-7.23
2022-12-14T02:16:55.107Z,-7.25
2022-12-14T02:19:22.009Z,-7.21
2022-12-14T02:22:08.091Z,-7.14
2022-12-14T02:24:52.761Z,-7.21
2022-12-14T02:27:34.756Z,-7.18
2022-12-14T02:30:14.733Z,-7.21
2022-12-14T02:32:47.817Z,-7.18
2022-12-14T02:35:35.659Z,-7.16
2022-12-14T02:38:20.082Z,-7.13
2022-12-14T02:41:23.739Z,-7.25
2022-12-14T02:44:00.938Z,-7.25
2022-12-14T02:46:50.342Z,-7.15
2022-12-14T02:49:52.552Z,-7.15
2022-12-14T02:52:37.503Z,-7.38
2022-12-14T02:55:18.374Z,-7.23
2022-12-14T02:57:53.518Z,-7.25
2022-12-14T03:00:20.419Z,-7.24
2022-12-14T03:02:49.254Z,-7.19
2022-12-14T03:05:16.208Z,-7.14
2022-12-14T03:08:09.044Z,-7.12
2022-12-14T03:10:55.345Z,-7.08
2022-12-14T03:13:36.944Z,-7.12
2022-12-14T03:16:03.611Z,-7.18
2022-12-14T03:18:36.255Z,-7.16
2022-12-14T03:21:07.887Z,-7.28
2022-12-14T03:23:55.633Z,-7.24
2022-12-14T03:26:26.532Z,-7.21
2022-12-14T03:29:19.989Z,-7.26
2022-12-14T03:32:10.456Z,-7.23
2022-12-14T03:34:53.259Z,-7.27
2022-12-14T03:37:39.760Z,-7.31
2022-12-14T03:40:13.469Z,-7.36
2022-12-14T03:42:56.703Z,-7.53
2022-12-14T03:45:42.549Z,-7.54
2022-12-14T03:48:30.752Z,-7.53
2022-12-14T03:51:14.344Z,-7.71
2022-12-14T03:53:50.095Z,-7.68
2022-12-14T03:56:39.416Z,-7.64
2022-12-14T03:59:18.123Z,-7.70
2022-12-14T04:01:57.479Z,-7.75
2022-12-14T04:04:36.272Z,-7.71
2022-12-14T04:07:18.062Z,-7.67
2022-12-14T04:09:54.527Z,-7.66
2022-12-14T04:12:53.678Z,-7.62
2022-12-14T04:15:53.741Z,-7.63
2022-12-14T04:18:46.690Z,-7.63
2022-12-14T04:21:32.105Z,-7.67
2022-12-14T04:24:22.283Z,-7.67
2022-12-14T04:27:00.886Z,-7.67
2022-12-14T04:29:51.218Z,-7.66
2022-12-14T04:32:26.566Z,-7.64
2022-12-14T04:35:16.418Z,-7.63
2022-12-14T04:37:48.856Z,-7.61
2022-12-14T04:40:21.882Z,-7.63
2022-12-14T04:42:55.853Z,-7.61
2022-12-14T04:45:30.925Z,-7.53
2022-12-14T04:48:08.282Z,-7.46
2022-12-14T04:50:40.368Z,-7.48
2022-12-14T04:53:16.383Z,-7.58
2022-12-14T04:55:58.216Z,-7.52
2022-12-14T04:58:28.134Z,-7.51
2022-12-14T05:01:06.823Z,-7.51
2022-12-14T05:03:36.145Z,-7.49
2022-12-14T05:06:05.589Z,-7.51
2022-12-14T05:08:47.318Z,-7.54
2022-12-14T05:14:22.323Z,-7.45
2022-12-14T05:16:49.694Z,-7.44
2022-12-14T05:19:16.818Z,-7.50
2022-12-14T05:21:49.307Z,-7.52
2022-12-14T05:24:17.259Z,-7.61
2022-12-14T05:26:44.412Z,-7.58
2022-12-14T05:29:11.531Z,-7.58
2022-12-14T05:31:38.569Z,-7.56
2022-12-14T05:34:05.376Z,-7.53
2022-12-14T05:36:32.006Z,-7.51
2022-12-14T05:38:58.683Z,-7.56
2022-12-14T05:41:25.382Z,-7.50
2022-12-14T05:43:52.427Z,-7.53
2022-12-14T05:46:19.143Z,-7.47
2022-12-14T05:48:49.212Z,-7.48
2022-12-14T05:51:16.482Z,-7.59
2022-12-14T05:53:43.490Z,-7.52
2022-12-14T05:56:11.861Z,-7.39
2022-12-14T05:58:39.244Z,-7.45
2022-12-14T06:01:13.957Z,-7.49
2022-12-14T06:03:43.965Z,-7.46
2022-12-14T06:06:13.168Z,-7.49
2022-12-14T06:08:41.275Z,-7.51
2022-12-14T06:11:10.323Z,-7.51
2022-12-14T06:13:38.145Z,-7.49
2022-12-14T06:16:25.457Z,-7.48
2022-12-14T06:18:57.563Z,-7.46
2022-12-14T06:21:27.404Z,-7.51
2022-12-14T06:23:55.705Z,-7.44
2022-12-14T06:26:23.103Z,-7.45
2022-12-14T06:28:50.137Z,-7.38
2022-12-14T06:31:38.466Z,-7.31
2022-12-14T06:34:05.509Z,-7.34
2022-12-14T06:36:37.447Z,-7.39
2022-12-14T06:39:06.995Z,-7.54
2022-12-14T06:41:33.818Z,-7.42
2022-12-14T06:44:08.312Z,-7.29
2022-12-14T06:46:36.324Z,-7.35
2022-12-14T06:49:05.031Z,-7.40
2022-12-14T06:51:32.324Z,-7.38
2022-12-14T06:53:59.112Z,-7.36
2022-12-14T06:56:28.359Z,-7.52
2022-12-14T06:58:55.502Z,-7.44
2022-12-14T07:01:24.460Z,-7.36
2022-12-14T07:03:56.319Z,-7.28
2022-12-14T07:06:24.811Z,-7.26
2022-12-14T07:08:56.183Z,-7.23
2022-12-14T07:11:23.032Z,-7.18
2022-12-14T07:13:49.970Z,-7.17
2022-12-14T07:16:19.897Z,-7.21
2022-12-14T07:18:47.678Z,-7.19
2022-12-14T07:21:16.957Z,-7.14
2022-12-14T07:23:45.728Z,-7.08
2022-12-14T07:26:21.821Z,-7.10
2022-12-14T07:28:49.211Z,-6.96
2022-12-14T07:31:24.587Z,-6.95
2022-12-14T07:33:56.921Z,-6.93
2022-12-14T07:36:24.723Z,-6.94
2022-12-14T07:38:52.504Z,-7.12
2022-12-14T07:41:23.111Z,-7.02
2022-12-14T07:43:51.624Z,-7.00
2022-12-14T07:46:21.526Z,-7.00
2022-12-14T07:48:51.370Z,-7.11
2022-12-14T07:51:21.352Z,-7.19
2022-12-14T07:53:48.840Z,-7.22
2022-12-14T07:56:20.990Z,-7.13
2022-12-14T07:58:48.325Z,-7.12
2022-12-14T08:01:15.142Z,-7.04
2022-12-14T08:03:45.650Z,-7.04
2022-12-14T08:06:14.110Z,-7.00
2022-12-14T08:08:41.786Z,-6.86
2022-12-14T08:11:10.175Z,-6.94
2022-12-14T08:13:39.042Z,-6.84
2022-12-14T08:16:08.360Z,-6.81
2022-12-14T08:18:35.899Z,-6.87
2022-12-14T08:21:04.863Z,-6.74
2022-12-14T08:23:32.694Z,-6.73
2022-12-14T08:26:01.396Z,-6.56
2022-12-14T08:28:29.782Z,-6.60
2022-12-14T08:30:57.542Z,-6.64
2022-12-14T08:33:24.811Z,-6.55
2022-12-14T08:35:51.716Z,-6.53
2022-12-14T08:38:38.796Z,-6.48
2022-12-14T08:41:08.226Z,-6.40
2022-12-14T08:43:35.738Z,-6.38
2022-12-14T08:46:03.778Z,-6.29
2022-12-14T08:48:30.969Z,-6.26
2022-12-14T08:51:05.493Z,-6.48
2022-12-14T08:53:32.848Z,-6.34
2022-12-14T08:56:08.349Z,-6.19
2022-12-14T08:58:35.426Z,-6.27
2022-12-14T09:01:07.464Z,-6.16
2022-12-14T09:03:34.353Z,-6.02
2022-12-14T09:06:04.013Z,-5.89
2022-12-14T09:08:31.513Z,-5.87
2022-12-14T09:10:58.438Z,-5.78
2022-12-14T09:13:25.344Z,-5.70
2022-12-14T09:15:59.293Z,-5.66
2022-12-14T09:18:26.927Z,-5.74
2022-12-14T09:20:57.408Z,-5.68
2022-12-14T09:23:25.724Z,-5.58
2022-12-14T09:26:22.521Z,-5.53
2022-12-14T09:28:54.269Z,-5.49
2022-12-14T09:31:23.852Z,-5.64
2022-12-14T09:33:51.081Z,-5.51
2022-12-14T09:36:21.044Z,-5.44
2022-12-14T09:38:51.754Z,-5.49
2022-12-14T09:41:29.258Z,-5.41
2022-12-14T09:44:18.199Z,-5.54
2022-12-14T09:47:10.888Z,-5.49
2022-12-14T09:49:46.668Z,-5.45
2022-12-14T09:52:18.687Z,-5.46
2022-12-14T09:54:49.712Z,-5.38
2022-12-14T09:57:27.667Z,-5.31
2022-12-14T09:59:55.090Z,-5.43
2022-12-14T10:02:46.493Z,-5.28
2022-12-14T10:05:32.210Z,-5.27
2022-12-14T10:08:35.775Z,-5.21
2022-12-14T10:11:11.718Z,-5.14
2022-12-14T10:13:47.391Z,-5.05
2022-12-14T10:16:32.110Z,-5.03
2022-12-14T10:19:10.866Z,-5.03
2022-12-14T10:21:56.907Z,-5.09
2022-12-14T10:24:51.769Z,-5.00
2022-12-14T10:27:24.313Z,-4.96
2022-12-14T10:30:04.047Z,-5.04
2022-12-14T10:32:39.721Z,-4.89
2022-12-14T10:35:14.825Z,-4.83
2022-12-14T10:37:58.510Z,-4.73
2022-12-14T10:40:34.832Z,-4.71
2022-12-14T10:43:04.883Z,-4.62
2022-12-14T10:45:47.221Z,-4.55
2022-12-14T10:48:25.551Z,-4.44
2022-12-14T10:51:10.744Z,-4.46
2022-12-14T10:53:58.929Z,-4.35
2022-12-14T10:56:33.486Z,-4.34
2022-12-14T10:59:18.558Z,-4.27
2022-12-14T11:01:48.242Z,-4.22
2022-12-14T11:04:47.331Z,-4.29
2022-12-14T11:07:15.963Z,-4.22
2022-12-14T11:09:43.603Z,-4.25
2022-12-14T11:12:13.593Z,-4.31
2022-12-14T11:15:02.273Z,-4.24
2022-12-14T11:17:34.146Z,-4.14
2022-12-14T11:20:22.680Z,-4.27
2022-12-14T11:23:08.484Z,-3.98
2022-12-14T11:25:41.680Z,-3.88
2022-12-14T11:28:36.550Z,-3.89
2022-12-14T11:31:13.314Z,-3.83
2022-12-14T11:33:46.002Z,-3.76
2022-12-14T11:36:24.877Z,-3.68
2022-12-14T11:39:00.939Z,-3.62
2022-12-14T11:41:36.800Z,-3.52
2022-12-14T11:44:07.129Z,-3.51
2022-12-14T11:46:46.111Z,-3.53
2022-12-14T11:49:39.200Z,-3.57
2022-12-14T11:52:05.910Z,-3.40
2022-12-14T11:54:34.218Z,-3.35
2022-12-14T11:57:12.826Z,-3.40
2022-12-14T12:00:02.769Z,-3.40
2022-12-14T12:02:37.058Z,-3.44
2022-12-14T12:05:16.148Z,-3.45
2022-12-14T12:07:52.243Z,-3.36
2022-12-14T12:10:40.365Z,-3.37
2022-12-14T12:13:26.658Z,-3.37
2022-12-14T12:16:19.853Z,-3.32
2022-12-14T12:18:48.638Z,-3.33
2022-12-14T12:21:18.095Z,-3.37
2022-12-14T12:23:57.914Z,-3.36
2022-12-14T12:26:43.577Z,-3.39
2022-12-14T12:29:24.165Z,-3.34
2022-12-14T12:31:50.713Z,-3.33
2022-12-14T12:34:21.785Z,-3.36
2022-12-14T12:37:17.484Z,-3.41
2022-12-14T12:39:40.739Z,-3.35
2022-12-14T12:42:42.434Z,-3.38
2022-12-14T12:45:14.999Z,-3.26
2022-12-14T12:47:48.345Z,-3.25
2022-12-14T12:50:22.744Z,-3.23
2022-12-14T12:53:09.582Z,-3.21
2022-12-14T12:55:42.476Z,-3.35
2022-12-14T12:58:21.099Z,-3.22
2022-12-14T13:00:51.677Z,-3.18
2022-12-14T13:03:51.481Z,-3.21
2022-12-14T13:06:27.830Z,-3.15
2022-12-14T13:09:11.959Z,-3.15
2022-12-14T13:11:40.278Z,-3.00
2022-12-14T13:14:26.358Z,-2.91
2022-12-14T13:16:54.956Z,-2.85
2022-12-14T13:19:54.887Z,-2.92
2022-12-14T13:22:33.822Z,-2.94
2022-12-14T13:25:14.371Z,-2.90
2022-12-14T13:28:01.070Z,-3.07
2022-12-14T13:30:46.256Z,-3.11
2022-12-14T13:33:54.452Z,-2.97
2022-12-14T13:36:42.528Z,-3.26
2022-12-14T13:39:26.294Z,-3.09
2022-12-14T13:42:16.214Z,-3.22
2022-12-14T13:45:01.316Z,-3.27
2022-12-14T13:47:33.568Z,-3.22
2022-12-14T13:52:50.577Z,-3.21
2022-12-14T13:55:32.490Z,-3.23
2022-12-14T13:58:34.025Z,-3.18
2022-12-14T14:01:09.346Z,-3.18
2022-12-14T14:03:36.142Z,-3.06
2022-12-14T14:06:17.523Z,-3.05
2022-12-14T14:08:47.109Z,-2.99
2022-12-14T14:11:38.745Z,-3.17
2022-12-14T14:14:36.342Z,-3.03
2022-12-14T14:17:12.078Z,-3.00
2022-12-14T14:19:41.359Z,-2.91
2022-12-14T14:22:25.237Z,-3.07
2022-12-14T14:24:59.819Z,-3.22
2022-12-14T14:27:37.089Z,-3.18
2022-12-14T14:30:23.496Z,-3.11
2022-12-14T14:32:53.989Z,-3.20
2022-12-14T14:35:23.877Z,-3.29
2022-12-14T14:38:00.205Z,-3.21
2022-12-14T14:40:51.326Z,-3.17
2022-12-14T14:43:35.054Z,-3.19
2022-12-14T14:46:05.717Z,-3.19
2022-12-14T14:48:41.395Z,-3.15
2022-12-14T14:51:10.835Z,-3.19
2022-12-14T14:53:39.336Z,-3.12
2022-12-14T14:56:12.350Z,-3.10
2022-12-14T14:58:41.947Z,-3.08
2022-12-14T15:01:25.029Z,-3.19
2022-12-14T15:03:51.895Z,-3.33
2022-12-14T15:06:39.935Z,-3.34
2022-12-14T15:09:09.356Z,-3.32
2022-12-14T15:11:57.662Z,-3.30
2022-12-14T15:14:43.312Z,-3.41
2022-12-14T15:17:20.185Z,-3.37
2022-12-14T15:19:55.248Z,-3.40
2022-12-14T15:22:25.131Z,-3.39
2022-12-14T15:24:55.880Z,-3.36
2022-12-14T15:27:31.860Z,-3.37
2022-12-14T15:30:19.198Z,-3.33
2022-12-14T15:33:06.823Z,-3.38
2022-12-14T15:35:37.346Z,-3.36
2022-12-14T15:38:18.782Z,-3.38
2022-12-14T15:40:56.063Z,-3.45
2022-12-14T15:43:23.859Z,-3.47
2022-12-14T15:45:54.133Z,-3.47
2022-12-14T15:48:34.569Z,-3.43
2022-12-14T15:51:07.382Z,-3.58
2022-12-14T15:53:35.584Z,-3.52
2022-12-14T15:56:27.093Z,-3.51
2022-12-14T15:58:54.182Z,-3.49
2022-12-14T16:01:26.124Z,-3.53
2022-12-14T16:03:55.375Z,-3.53
2022-12-14T16:06:26.476Z,-3.58
2022-12-14T16:08:56.231Z,-3.57
2022-12-14T16:11:28.643Z,-3.61
2022-12-14T16:13:56.843Z,-3.66
2022-12-14T16:16:23.840Z,-3.73
2022-12-14T16:18:51.527Z,-3.72
2022-12-14T16:21:35.649Z,-3.76
2022-12-14T16:24:22.382Z,-3.79
2022-12-14T16:26:58.248Z,-3.78
2022-12-14T16:29:28.837Z,-3.79
2022-12-14T16:32:14.714Z,-3.81
2022-12-14T16:34:47.623Z,-3.83
2022-12-14T16:37:33.901Z,-3.83
2022-12-14T16:40:01.008Z,-3.83
2022-12-14T16:42:28.097Z,-3.84
2022-12-14T16:44:54.897Z,-3.87
2022-12-14T16:47:21.590Z,-3.86
2022-12-14T16:49:48.139Z,-3.89
2022-12-14T16:52:20.775Z,-3.86
2022-12-14T16:55:15.028Z,-3.86
2022-12-14T16:57:56.108Z,-3.89
2022-12-14T17:00:34.001Z,-3.92
2022-12-14T17:03:23.165Z,-3.94
2022-12-14T17:05:56.729Z,-3.97
2022-12-14T17:08:23.281Z,-3.95
2022-12-14T17:10:50.925Z,-3.96
2022-12-14T17:13:17.806Z,-4.06
2022-12-14T17:16:04.685Z,-4.15
2022-12-14T17:18:40.470Z,-4.16
2022-12-14T17:21:08.928Z,-4.17
2022-12-14T17:23:40.071Z,-4.11
2022-12-14T17:26:06.691Z,-4.06
2022-12-14T17:28:34.707Z,-4.00
2022-12-14T17:31:03.112Z,-3.98
2022-12-14T17:33:32.119Z,-3.95
2022-12-14T17:35:59.338Z,-3.94
2022-12-14T17:38:25.992Z,-3.95
2022-12-14T17:40:53.977Z,-3.91
2022-12-14T17:43:25.605Z,-3.88
2022-12-14T17:45:53.027Z,-3.88
2022-12-14T17:48:20.981Z,-3.87
2022-12-14T17:50:49.919Z,-3.88
2022-12-14T17:53:21.363Z,-3.91
2022-12-14T17:55:48.231Z,-3.94
2022-12-14T17:58:14.823Z,-3.98
2022-12-14T18:01:00.104Z,-3.95
2022-12-14T18:03:29.915Z,-3.97
2022-12-14T18:05:58.228Z,-4.00
2022-12-14T18:08:26.586Z,-3.99
2022-12-14T18:11:10.248Z,-4.00
2022-12-14T18:13:40.434Z,-4.01
2022-12-14T18:16:10.176Z,-4.06
2022-12-14T18:18:36.784Z,-4.16
2022-12-14T18:21:04.943Z,-4.18
2022-12-14T18:23:32.197Z,-4.23
2022-12-14T18:26:00.421Z,-4.29
2022-12-14T18:28:27.097Z,-4.32
2022-12-14T18:31:02.293Z,-4.37
2022-12-14T18:33:29.839Z,-4.42
2022-12-14T18:35:57.721Z,-4.45
2022-12-14T18:38:24.615Z,-4.45
2022-12-14T18:40:53.851Z,-4.53
2022-12-14T18:43:24.749Z,-4.62
2022-12-14T18:45:53.186Z,-4.71
2022-12-14T18:48:21.010Z,-4.69
2022-12-14T18:50:49.803Z,-4.71
2022-12-14T18:53:18.880Z,-4.71
2022-12-14T18:55:46.211Z,-4.78
2022-12-14T18:58:21.003Z,-4.82
2022-12-14T19:00:50.539Z,-4.90
2022-12-14T19:03:17.787Z,-4.94
2022-12-14T19:05:45.480Z,-5.04
2022-12-14T19:08:12.876Z,-5.09
2022-12-14T19:10:42.444Z,-5.17
2022-12-14T19:13:14.714Z,-5.23
2022-12-14T19:15:41.392Z,-5.28
2022-12-14T19:18:08.080Z,-5.31
2022-12-14T19:20:34.813Z,-5.31
2022-12-14T19:23:02.503Z,-5.32
2022-12-14T19:25:29.565Z,-5.40
2022-12-14T19:28:30.873Z,-5.43
2022-12-14T19:30:44.543Z,-5.54
2022-12-14T19:33:11.558Z,-5.57
2022-12-14T19:35:42.403Z,-5.70
2022-12-14T19:38:13.512Z,-5.80
2022-12-14T19:40:40.893Z,-5.86
2022-12-14T19:43:07.607Z,-5.94
2022-12-14T19:45:35.083Z,-5.97
2022-12-14T19:48:01.791Z,-6.07
2022-12-14T19:50:28.471Z,-6.11
2022-12-14T19:52:55.155Z,-6.24
2022-12-14T19:55:21.875Z,-6.25
2022-12-14T19:57:48.549Z,-6.27
2022-12-14T20:00:15.403Z,-6.32
2022-12-14T20:02:42.201Z,-6.35
2022-12-14T20:05:09.404Z,-6.43
2022-12-14T20:07:41.844Z,-6.50
2022-12-14T20:10:10.297Z,-6.53
2022-12-14T20:12:37.372Z,-6.53
2022-12-14T20:15:04.407Z,-6.55
2022-12-14T20:17:31.038Z,-6.58
2022-12-14T20:19:57.812Z,-6.61
2022-12-14T20:22:24.471Z,-6.69
2022-12-14T20:24:51.083Z,-6.75
2022-12-14T20:27:17.814Z,-6.73
2022-12-14T20:29:44.453Z,-6.70
2022-12-14T20:32:11.231Z,-6.72
2022-12-14T20:34:39.192Z,-6.75
2022-12-14T20:37:06.622Z,-6.81
2022-12-14T20:39:33.218Z,-6.91
2022-12-14T20:41:59.832Z,-6.93
2022-12-14T20:44:26.589Z,-7.01
2022-12-14T20:46:53.416Z,-7.04
2022-12-14T20:49:21.456Z,-7.02
2022-12-14T20:51:49.004Z,-6.99
2022-12-14T20:54:19.055Z,-7.09
2022-12-14T20:56:49.204Z,-7.12
2022-12-14T20:59:16.414Z,-7.19
2022-12-14T21:01:43.339Z,-7.18
2022-12-14T21:04:10.310Z,-7.25
2022-12-14T21:06:39.540Z,-7.31
2022-12-14T21:09:09.439Z,-7.38
2022-12-14T21:12:08.803Z,-7.44
2022-12-14T21:14:43.493Z,-7.49
2022-12-14T21:17:11.044Z,-7.49
2022-12-14T21:19:37.766Z,-7.50
2022-12-14T21:22:06.210Z,-7.54
2022-12-14T21:27:26.047Z,-7.69
2022-12-14T21:29:53.477Z,-7.69
2022-12-14T21:32:21.946Z,-7.72
2022-12-14T21:34:49.084Z,-7.76
2022-12-14T21:37:16.107Z,-7.77
2022-12-14T21:39:46.347Z,-7.81
2022-12-14T21:42:20.645Z,-7.82
2022-12-14T21:44:49.511Z,-7.79
2022-12-14T21:47:19.430Z,-7.76
2022-12-14T21:49:46.604Z,-7.74
2022-12-14T21:52:16.363Z,-7.78
2022-12-14T21:54:43.575Z,-7.82
2022-12-14T21:57:36.626Z,-7.88
2022-12-14T22:00:05.740Z,-7.93
2022-12-14T22:02:32.461Z,-7.97
2022-12-14T22:04:59.337Z,-8.04
2022-12-14T22:07:30.426Z,-8.11
2022-12-14T22:09:57.181Z,-8.13
2022-12-14T22:12:23.866Z,-8.11
2022-12-14T22:14:51.117Z,-8.09
2022-12-14T22:17:17.863Z,-8.03
2022-12-14T22:19:44.606Z,-8.01
2022-12-14T22:22:16.524Z,-7.99
2022-12-14T22:24:44.130Z,-7.98
2022-12-14T22:27:12.150Z,-8.00
2022-12-14T22:29:39.402Z,-8.06
2022-12-14T22:32:07.223Z,-8.08
2022-12-14T22:34:34.284Z,-8.13
2022-12-14T22:37:01.108Z,-8.17
2022-12-14T22:39:27.878Z,-8.19
2022-12-14T22:41:54.698Z,-8.21
2022-12-14T22:44:21.460Z,-8.23
2022-12-14T22:46:48.130Z,-8.26
2022-12-14T22:49:17.904Z,-8.23
2022-12-14T22:51:45.568Z,-8.28
2022-12-14T22:54:23.927Z,-8.31
2022-12-14T22:57:02.450Z,-8.33
2022-12-14T22:59:39.057Z,-8.31
2022-12-14T23:02:06.276Z,-8.32
2022-12-14T23:04:33.570Z,-8.32
2022-12-14T23:07:00.177Z,-8.31
2022-12-14T23:09:45.550Z,-8.31
2022-12-14T23:12:30.859Z,-8.29
2022-12-14T23:15:16.440Z,-8.30
2022-12-14T23:18:01.706Z,-8.35
2022-12-14T23:20:46.958Z,-8.39
2022-12-14T23:23:32.295Z,-8.39
2022-12-14T23:26:25.362Z,-8.43
2022-12-14T23:29:16.161Z,-8.46
2022-12-14T23:35:11.003Z,-8.49
2022-12-14T23:37:56.630Z,-8.54
2022-12-14T23:40:47.266Z,-8.56
2022-12-14T23:43:35.630Z,-8.59
2022-12-14T23:46:23.309Z,-8.57
2022-12-14T23:49:13.670Z,-8.60
2022-12-14T23:52:01.016Z,-8.66
2022-12-14T23:54:49.192Z,-8.70
2022-12-14T23:57:34.877Z,-8.70
